Time;durP1;ratioP1;P1;durP2;ratioP2;P2;SDS_P1;SDS_P2;PMS_P1;PMS_P2;Temp;Humidity;BMP_temperature;BMP_pressure;BME280_temperature;BME280_humidity;BME280_pressure;Samples;Min_cycle;Max_cycle;Signal;HPM_P1;HPM_P2
2023/08/25 00:01:25;;;;;;;958.40;790.93;;;16.80;99.90;;;;;;4994378;28;20458;-72
2023/08/25 00:03:51;;;;;;;966.77;807.47;;;16.80;99.90;;;;;;4994072;28;20460;-72
2023/08/25 00:06:18;;;;;;;964.90;810.50;;;16.90;99.90;;;;;;4994190;28;20485;-72
2023/08/25 00:08:46;;;;;;;960.50;799.93;;;16.90;99.90;;;;;;4994049;28;20461;-72
2023/08/25 00:11:13;;;;;;;962.83;796.67;;;16.90;99.90;;;;;;4994236;28;20456;-72
2023/08/25 00:13:41;;;;;;;950.20;790.73;;;16.90;99.90;;;;;;4994062;28;20525;-72
2023/08/25 00:16:09;;;;;;;963.33;800.73;;;16.90;99.90;;;;;;4993936;28;20450;-72
2023/08/25 00:18:36;;;;;;;966.57;806.37;;;16.90;99.90;;;;;;4993992;28;20446;-72
2023/08/25 00:21:04;;;;;;;961.53;804.63;;;16.90;99.90;;;;;;4993876;28;20454;-72
2023/08/25 00:23:31;;;;;;;970.07;806.57;;;16.80;99.90;;;;;;4993908;28;20509;-72
2023/08/25 00:25:58;;;;;;;960.97;803.70;;;16.70;99.90;;;;;;4993780;28;20486;-72
2023/08/25 00:28:25;;;;;;;967.20;800.93;;;16.60;99.90;;;;;;4993916;28;20537;-72
2023/08/25 00:30:52;;;;;;;955.87;794.63;;;16.70;99.90;;;;;;4993431;28;20942;-72
2023/08/25 00:33:20;;;;;;;959.83;799.63;;;16.60;99.90;;;;;;4993647;28;20454;-72
2023/08/25 00:35:47;;;;;;;966.67;811.23;;;16.60;99.90;;;;;;4993503;28;20450;-72
2023/08/25 00:38:14;;;;;;;961.57;804.23;;;16.60;99.90;;;;;;4993541;28;20460;-72
2023/08/25 00:40:41;;;;;;;956.17;803.73;;;16.60;99.90;;;;;;4993690;28;20460;-72
2023/08/25 00:43:08;;;;;;;963.67;801.50;;;16.60;99.90;;;;;;4993607;28;20549;-72
2023/08/25 00:45:39;;;;;;;961.47;803.07;;;16.60;99.90;;;;;;4993362;28;20517;-71
2023/08/25 00:48:07;;;;;;;958.67;806.20;;;16.60;99.90;;;;;;4993399;28;20486;-72
2023/08/25 00:50:35;;;;;;;959.07;808.40;;;16.60;99.90;;;;;;4993331;28;20479;-72
2023/08/25 00:53:03;;;;;;;965.73;810.40;;;16.60;99.90;;;;;;4993215;28;20458;-72
2023/08/25 00:55:31;;;;;;;967.37;811.93;;;16.70;99.90;;;;;;4993381;28;20533;-72
2023/08/25 00:57:58;;;;;;;962.17;812.33;;;16.70;99.90;;;;;;4993385;28;20457;-72
2023/08/25 01:00:26;;;;;;;963.90;808.80;;;16.80;99.90;;;;;;4993106;28;21003;-71
2023/08/25 01:02:54;;;;;;;966.43;818.13;;;16.90;99.90;;;;;;4993074;28;20482;-72
2023/08/25 01:05:21;;;;;;;964.93;805.80;;;16.90;99.90;;;;;;4993186;28;20482;-72
2023/08/25 01:07:49;;;;;;;959.57;808.50;;;16.90;99.90;;;;;;4993362;28;20545;-72
2023/08/25 01:10:17;;;;;;;959.47;805.93;;;17.00;99.90;;;;;;4993140;28;20460;-72
2023/08/25 01:12:55;;;;;;;960.27;801.20;;;17.00;99.90;;;;;;4993127;28;20458;-72
2023/08/25 01:15:29;;;;;;;956.40;797.97;;;17.10;99.90;;;;;;4992778;28;20450;-71
2023/08/25 01:18:03;;;;;;;965.83;806.00;;;17.10;99.90;;;;;;4993222;28;20445;-72
2023/08/25 01:20:31;;;;;;;964.27;810.70;;;17.10;99.90;;;;;;4993109;28;20458;-73
2023/08/25 01:23:12;;;;;;;972.67;817.67;;;17.10;99.90;;;;;;4993038;28;20822;-72
2023/08/25 01:25:41;;;;;;;970.87;812.57;;;17.10;99.90;;;;;;4992732;28;20886;-72
2023/08/25 01:28:10;;;;;;;969.03;811.33;;;17.10;99.90;;;;;;4992868;28;20556;-71
2023/08/25 01:30:37;;;;;;;966.53;808.83;;;17.10;99.90;;;;;;4993011;28;20459;-72
2023/08/25 01:33:05;;;;;;;978.07;820.80;;;17.10;99.90;;;;;;4992707;28;20945;-71
2023/08/25 01:35:42;;;;;;;971.67;821.27;;;17.10;99.90;;;;;;4992636;28;20549;-71
2023/08/25 01:38:16;;;;;;;971.70;817.97;;;17.10;99.90;;;;;;4992709;28;20461;-72
2023/08/25 01:40:49;;;;;;;977.90;824.17;;;17.00;99.90;;;;;;4992834;28;20948;-72
2023/08/25 01:43:21;;;;;;;976.10;828.47;;;17.00;99.90;;;;;;4996849;28;20454;-71
2023/08/25 01:45:50;;;;;;;977.37;822.37;;;17.00;99.90;;;;;;4996793;28;20864;-71
2023/08/25 01:48:19;;;;;;;980.40;835.50;;;17.00;99.90;;;;;;4996760;28;20540;-72
2023/08/25 01:50:46;;;;;;;976.50;837.30;;;16.90;99.90;;;;;;4996663;28;20545;-72
2023/08/25 01:53:14;;;;;;;987.03;834.53;;;16.90;99.90;;;;;;4996516;28;20466;-72
2023/08/25 01:55:40;;;;;;;981.90;828.90;;;16.90;99.90;;;;;;4996665;28;20549;-72
2023/08/25 01:58:10;;;;;;;987.77;842.07;;;16.90;99.90;;;;;;4997011;28;20484;-72
2023/08/25 02:00:37;;;;;;;991.27;841.67;;;16.90;99.90;;;;;;4996619;28;20838;-72
2023/08/25 02:03:04;;;;;;;988.27;837.60;;;16.90;99.90;;;;;;4996505;28;21010;-72
2023/08/25 02:05:31;;;;;;;994.33;846.50;;;16.80;99.90;;;;;;4996161;28;20482;-72
2023/08/25 02:07:58;;;;;;;992.97;834.40;;;16.80;99.90;;;;;;4996477;28;20485;-72
2023/08/25 02:10:25;;;;;;;984.17;847.63;;;16.70;99.90;;;;;;4996480;28;20461;-71
2023/08/25 02:12:51;;;;;;;982.60;817.20;;;16.70;99.90;;;;;;4996337;28;20473;-71
2023/08/25 02:15:20;;;;;;;990.40;837.57;;;16.70;99.90;;;;;;4996182;28;20453;-71
2023/08/25 02:17:46;;;;;;;983.30;833.23;;;16.60;99.90;;;;;;4996221;28;20549;-71
2023/08/25 02:20:13;;;;;;;981.73;819.87;;;16.60;99.90;;;;;;4996426;28;20541;-71
2023/08/25 02:22:40;;;;;;;984.77;830.00;;;16.60;99.90;;;;;;4996276;28;20464;-71
2023/08/25 02:25:08;;;;;;;983.43;832.90;;;16.60;99.90;;;;;;4996063;28;20975;-72
2023/08/25 02:27:35;;;;;;;980.47;828.37;;;16.60;99.90;;;;;;4996194;28;20454;-72
2023/08/25 02:30:03;;;;;;;980.30;822.10;;;16.60;99.90;;;;;;4995916;28;20454;-72
2023/08/25 02:32:31;;;;;;;975.20;831.07;;;16.70;99.90;;;;;;4995951;28;20461;-71
2023/08/25 02:34:58;;;;;;;974.67;829.97;;;16.60;99.90;;;;;;4996066;28;20454;-72
2023/08/25 02:37:25;;;;;;;967.07;836.17;;;16.60;99.90;;;;;;4995910;28;20458;-72
2023/08/25 02:39:51;;;;;;;963.33;828.33;;;16.60;99.90;;;;;;4995871;28;20454;-72
2023/08/25 02:42:18;;;;;;;960.67;820.77;;;16.60;99.90;;;;;;4995901;28;20550;-71
2023/08/25 02:44:45;;;;;;;959.73;823.90;;;16.60;99.90;;;;;;4995566;28;20540;-72
2023/08/25 02:47:12;;;;;;;955.73;821.90;;;16.60;99.90;;;;;;4995644;28;20565;-72
2023/08/25 02:49:40;;;;;;;963.30;810.70;;;16.60;99.90;;;;;;4995811;28;20954;-72
2023/08/25 02:52:07;;;;;;;957.27;810.30;;;16.70;99.90;;;;;;4995185;28;20454;-72
2023/08/25 02:54:34;;;;;;;956.67;808.60;;;16.70;99.90;;;;;;4995606;28;20540;-71
2023/08/25 02:57:01;;;;;;;958.27;809.40;;;16.70;99.90;;;;;;4995553;28;20482;-71
2023/08/25 02:59:28;;;;;;;957.83;807.90;;;16.70;99.90;;;;;;4995371;28;20459;-71
2023/08/25 03:01:55;;;;;;;965.67;822.20;;;16.70;99.90;;;;;;4995617;28;20477;-72
2023/08/25 03:04:22;;;;;;;966.77;824.17;;;16.70;99.90;;;;;;4995335;28;20464;-71
2023/08/25 03:06:50;;;;;;;949.73;803.90;;;16.70;99.90;;;;;;4995417;28;20569;-72
2023/08/25 03:09:17;;;;;;;956.70;813.30;;;16.60;99.90;;;;;;4995395;28;20450;-72
2023/08/25 03:11:44;;;;;;;950.27;814.60;;;16.60;99.90;;;;;;4995254;28;20460;-72
2023/08/25 03:14:11;;;;;;;971.87;838.07;;;16.70;99.90;;;;;;4994979;28;20493;-72
2023/08/25 03:16:38;;;;;;;970.40;837.80;;;16.60;99.90;;;;;;4995409;28;20447;-71
2023/08/25 03:19:04;;;;;;;974.53;836.53;;;16.60;99.90;;;;;;4995339;28;20541;-72
2023/08/25 03:21:31;;;;;;;980.17;842.07;;;16.60;99.90;;;;;;4995243;28;20454;-71
2023/08/25 03:23:59;;;;;;;962.90;824.33;;;16.60;99.90;;;;;;4994934;28;20465;-71
2023/08/25 03:26:26;;;;;;;967.50;833.50;;;16.50;99.90;;;;;;4995067;28;20485;-71
2023/08/25 03:28:53;;;;;;;984.43;839.73;;;16.40;99.90;;;;;;4994892;28;20961;-71
2023/08/25 03:31:20;;;;;;;982.70;843.40;;;16.40;99.90;;;;;;4995064;28;20545;-71
2023/08/25 03:33:47;;;;;;;977.47;836.20;;;16.30;99.90;;;;;;4994972;28;20454;-71
2023/08/25 03:36:14;;;;;;;969.00;829.17;;;16.30;99.90;;;;;;4994793;28;20500;-71
2023/08/25 03:38:41;;;;;;;965.77;823.97;;;16.30;99.90;;;;;;4994754;28;20537;-71
2023/08/25 03:41:10;;;;;;;974.73;820.43;;;16.30;99.90;;;;;;4994559;28;20454;-72
2023/08/25 03:43:36;;;;;;;968.70;810.50;;;16.30;99.90;;;;;;4994376;28;20537;-71
2023/08/25 03:46:04;;;;;;;972.60;821.53;;;16.30;99.90;;;;;;4994712;28;20486;-72
2023/08/25 03:48:31;;;;;;;972.67;821.17;;;16.40;99.90;;;;;;4994591;28;20453;-72
2023/08/25 03:50:58;;;;;;;957.23;804.90;;;16.40;99.90;;;;;;4994667;28;20530;-72
2023/08/25 03:53:24;;;;;;;955.60;796.27;;;16.50;99.90;;;;;;4994402;28;20821;-71
2023/08/25 03:55:52;;;;;;;951.07;791.23;;;16.60;99.90;;;;;;4994366;28;20536;-71
2023/08/25 03:58:20;;;;;;;950.10;788.73;;;16.60;99.90;;;;;;4994695;28;20454;-72
2023/08/25 04:00:52;;;;;;;950.63;791.10;;;16.60;99.90;;;;;;4994496;28;20547;-71
2023/08/25 04:03:19;;;;;;;941.53;778.70;;;16.60;99.90;;;;;;4994410;28;20497;-71
2023/08/25 04:05:46;;;;;;;937.07;783.77;;;16.50;99.90;;;;;;4993812;28;20569;-72
2023/08/25 04:08:13;;;;;;;938.63;780.70;;;16.50;99.90;;;;;;4994192;28;20458;-72
2023/08/25 04:10:41;;;;;;;936.67;772.53;;;16.50;99.90;;;;;;4994396;28;20986;-73
2023/08/25 04:13:08;;;;;;;937.87;803.10;;;16.50;99.90;;;;;;4994275;28;20537;-73
2023/08/25 04:15:36;;;;;;;937.67;807.37;;;16.50;99.90;;;;;;4994171;28;20462;-73
2023/08/25 04:18:04;;;;;;;923.03;792.27;;;16.60;99.90;;;;;;4994033;28;20461;-73
2023/08/25 04:20:31;;;;;;;930.73;800.53;;;16.60;99.90;;;;;;4994078;28;20533;-72
2023/08/25 04:23:01;;;;;;;933.37;801.87;;;16.60;99.90;;;;;;4993811;28;20509;-72
2023/08/25 04:25:29;;;;;;;928.97;803.27;;;16.60;99.90;;;;;;4993837;28;20799;-71
2023/08/25 04:27:56;;;;;;;934.70;810.63;;;16.60;99.90;;;;;;4993945;28;20508;-71
2023/08/25 04:30:23;;;;;;;931.97;825.93;;;16.60;99.90;;;;;;4993779;28;20458;-71
2023/08/25 04:32:53;;;;;;;933.97;807.90;;;16.70;99.90;;;;;;4993712;28;20454;-71
2023/08/25 04:35:20;;;;;;;945.20;817.13;;;16.70;99.90;;;;;;4993485;28;20486;-71
2023/08/25 04:37:48;;;;;;;939.03;809.47;;;16.60;99.90;;;;;;4993661;28;20934;-72
2023/08/25 04:40:15;;;;;;;941.87;805.13;;;16.70;99.90;;;;;;4993382;28;20461;-72
2023/08/25 04:42:42;;;;;;;934.83;822.87;;;16.70;99.90;;;;;;4993753;28;20947;-72
2023/08/25 04:45:10;;;;;;;928.57;817.67;;;16.70;99.90;;;;;;4993550;28;20561;-72
2023/08/25 04:47:37;;;;;;;917.53;806.30;;;16.70;99.90;;;;;;4993477;28;20486;-72
2023/08/25 04:50:08;;;;;;;909.53;803.97;;;16.70;99.90;;;;;;4993321;28;20458;-72
2023/08/25 04:52:35;;;;;;;908.17;806.17;;;16.70;99.90;;;;;;4993290;28;20943;-71
2023/08/25 04:55:04;;;;;;;911.13;803.83;;;16.60;99.90;;;;;;4993405;28;20462;-71
2023/08/25 04:57:31;;;;;;;909.23;809.13;;;16.60;99.90;;;;;;4993384;28;20873;-72
2023/08/25 04:59:58;;;;;;;906.33;794.57;;;16.60;99.90;;;;;;4993225;28;20454;-72
2023/08/25 05:02:25;;;;;;;909.10;807.23;;;16.60;99.90;;;;;;4993012;28;20465;-71
2023/08/25 05:04:52;;;;;;;924.57;803.60;;;16.60;99.90;;;;;;4993308;28;20450;-72
2023/08/25 05:07:21;;;;;;;925.83;793.57;;;16.60;99.90;;;;;;4993312;28;20829;-72
2023/08/25 05:09:47;;;;;;;910.77;793.63;;;16.70;99.90;;;;;;4993249;28;20458;-73
2023/08/25 05:12:15;;;;;;;905.33;786.83;;;16.70;99.90;;;;;;4993473;28;20454;-71
2023/08/25 05:14:42;;;;;;;900.00;777.53;;;16.80;99.90;;;;;;4993453;28;20455;-71
2023/08/25 05:17:10;;;;;;;890.03;779.43;;;16.80;99.90;;;;;;4992888;28;20454;-71
2023/08/25 05:19:37;;;;;;;890.00;785.27;;;16.90;99.90;;;;;;4992902;28;20524;-69
2023/08/25 05:22:03;;;;;;;888.67;786.63;;;16.90;99.90;;;;;;4992956;28;20822;-69
2023/08/25 05:24:32;;;;;;;895.93;797.93;;;16.90;99.90;;;;;;4992903;28;20814;-69
2023/08/25 05:26:58;;;;;;;888.47;786.77;;;16.90;99.90;;;;;;4978993;28;20550;-69
2023/08/25 05:29:27;;;;;;;881.33;786.27;;;17.00;99.90;;;;;;4990091;28;20811;-69
2023/08/25 05:31:55;;;;;;;878.47;784.50;;;17.10;99.90;;;;;;4993011;28;20476;-69
2023/08/25 05:34:22;;;;;;;886.20;795.30;;;17.20;99.90;;;;;;4992691;28;20954;-69
2023/08/25 05:36:49;;;;;;;895.67;806.67;;;17.30;99.90;;;;;;4992934;28;20468;-69
2023/08/25 05:39:18;;;;;;;892.67;804.87;;;17.30;99.90;;;;;;4992663;28;20575;-69
2023/08/25 05:41:46;;;;;;;891.53;804.57;;;17.40;99.90;;;;;;4992753;28;20550;-69
2023/08/25 05:44:13;;;;;;;888.97;801.97;;;17.40;99.90;;;;;;4992462;28;21000;-69
2023/08/25 05:46:40;;;;;;;885.47;799.77;;;17.50;99.90;;;;;;4992834;28;20485;-68
2023/08/25 05:49:07;;;;;;;887.77;803.30;;;17.50;99.90;;;;;;4992851;28;20450;-69
2023/08/25 05:51:34;;;;;;;889.70;804.50;;;17.60;99.90;;;;;;4992859;28;20454;-69
2023/08/25 05:54:01;;;;;;;895.33;811.17;;;17.60;99.90;;;;;;5005185;28;20498;-69
2023/08/25 05:56:28;;;;;;;881.57;798.10;;;17.70;99.90;;;;;;5012071;28;20455;-69
2023/08/25 05:58:59;;;;;;;888.33;805.73;;;17.80;99.90;;;;;;5011510;28;20819;-69
2023/08/25 06:01:26;;;;;;;889.23;807.67;;;17.90;99.90;;;;;;5012475;28;20460;-69
2023/08/25 06:03:53;;;;;;;880.77;800.53;;;18.10;99.90;;;;;;5011492;28;20549;-69
2023/08/25 06:06:19;;;;;;;872.33;792.67;;;18.10;99.90;;;;;;5012252;28;20837;-71
2023/08/25 06:08:46;;;;;;;874.27;796.90;;;18.20;99.90;;;;;;5011856;28;20446;-71
2023/08/25 06:11:13;;;;;;;878.67;801.47;;;18.30;99.90;;;;;;5011902;28;20496;-69
2023/08/25 06:13:40;;;;;;;877.00;803.10;;;18.50;99.90;;;;;;5012204;28;20512;-70
2023/08/25 06:16:09;;;;;;;866.60;794.30;;;18.70;99.90;;;;;;5012318;28;20456;-71
2023/08/25 06:18:36;;;;;;;874.03;802.03;;;18.80;99.90;;;;;;5012357;28;20512;-70
2023/08/25 06:21:03;;;;;;;868.10;796.90;;;19.10;99.90;;;;;;5012023;28;20454;-71
2023/08/25 06:23:30;;;;;;;867.47;798.20;;;19.30;99.90;;;;;;5011899;28;20456;-71
2023/08/25 06:25:57;;;;;;;844.67;788.27;;;19.60;99.90;;;;;;5012003;28;20453;-70
2023/08/25 06:28:23;;;;;;;842.47;786.80;;;19.70;99.90;;;;;;5014703;28;20488;-71
2023/08/25 06:30:50;;;;;;;846.47;790.43;;;19.90;99.90;;;;;;5015773;28;20536;-70
2023/08/25 06:33:19;;;;;;;834.60;780.70;;;19.90;99.90;;;;;;5016010;28;20450;-70
2023/08/25 06:35:46;;;;;;;832.47;780.07;;;19.90;99.90;;;;;;5015390;28;20544;-71
2023/08/25 06:38:13;;;;;;;833.47;781.93;;;19.90;99.90;;;;;;5015134;28;20445;-71
2023/08/25 06:40:39;;;;;;;836.57;785.37;;;19.90;99.90;;;;;;5015439;28;21027;-70
2023/08/25 06:43:06;;;;;;;839.60;786.97;;;19.90;99.90;;;;;;5015471;28;20455;-70
2023/08/25 06:45:33;;;;;;;845.03;790.27;;;19.90;99.90;;;;;;4998537;28;20461;-71
2023/08/25 06:48:00;;;;;;;857.20;799.27;;;20.00;99.90;;;;;;4995432;28;20489;-70
2023/08/25 06:50:28;;;;;;;846.77;791.57;;;20.30;99.90;;;;;;4995457;28;20981;-71
2023/08/25 06:52:55;;;;;;;843.80;790.33;;;20.50;99.90;;;;;;4994872;28;20814;-71
2023/08/25 06:55:24;;;;;;;831.43;781.63;;;20.70;99.90;;;;;;4995042;28;20461;-70
2023/08/25 06:57:51;;;;;;;794.20;750.57;;;20.80;99.90;;;;;;4995384;28;20446;-70
2023/08/25 07:00:18;;;;;;;757.30;716.80;;;20.90;99.90;;;;;;4995045;28;20545;-70
2023/08/25 07:02:45;;;;;;;773.67;733.23;;;21.20;99.90;;;;;;4995369;28;20516;-71
2023/08/25 07:05:13;;;;;;;720.30;686.83;;;21.30;99.90;;;;;;4994819;28;20457;-73
2023/08/25 07:07:42;;;;;;;741.67;706.77;;;21.10;99.90;;;;;;4994909;28;20540;-71
2023/08/25 07:10:10;;;;;;;692.33;661.60;;;21.00;99.90;;;;;;4995191;28;20497;-70
2023/08/25 07:12:37;;;;;;;764.93;727.07;;;20.60;99.90;;;;;;4994884;28;20447;-71
2023/08/25 07:15:05;;;;;;;823.93;777.07;;;20.40;99.90;;;;;;4994706;28;20505;-75
2023/08/25 07:17:32;;;;;;;856.50;805.90;;;20.20;99.90;;;;;;4995048;28;20461;-70
2023/08/25 07:19:59;;;;;;;951.30;892.93;;;19.80;99.90;;;;;;4995106;28;20450;-69
2023/08/25 07:22:26;;;;;;;899.73;845.33;;;19.50;99.90;;;;;;4995301;28;20537;-69
2023/08/25 07:24:54;;;;;;;1048.87;981.00;;;19.30;99.90;;;;;;4993416;28;20533;-69
2023/08/25 07:27:21;;;;;;;1121.70;999.90;;;19.20;99.90;;;;;;4994636;28;21093;-69
2023/08/25 07:29:48;;;;;;;1076.27;992.80;;;19.00;99.90;;;;;;4994735;28;20546;-70
2023/08/25 07:32:15;;;;;;;1135.40;999.90;;;19.10;99.90;;;;;;4994401;28;20454;-70
2023/08/25 07:34:45;;;;;;;1218.27;999.90;;;18.90;99.90;;;;;;4994465;28;20593;-69
2023/08/25 07:37:12;;;;;;;973.97;881.67;;;19.00;99.90;;;;;;4994353;28;20450;-68
2023/08/25 07:39:40;;;;;;;1210.40;999.90;;;18.90;99.90;;;;;;4993189;28;20457;-68
2023/08/25 07:42:09;;;;;;;1190.67;999.90;;;18.90;99.90;;;;;;4999146;28;20456;-68
2023/08/25 07:44:37;;;;;;;1130.43;999.90;;;18.90;99.90;;;;;;5013817;28;20452;-67
2023/08/25 07:47:05;;;;;;;1194.63;999.90;;;18.90;99.90;;;;;;5013655;28;20493;-67
2023/08/25 07:49:31;;;;;;;1213.17;999.90;;;18.90;99.90;;;;;;5014136;28;21072;-67
2023/08/25 07:51:58;;;;;;;1193.07;999.90;;;18.80;99.90;;;;;;5011816;28;20458;-68
2023/08/25 07:54:26;;;;;;;1217.10;999.90;;;18.80;99.90;;;;;;5013149;28;20450;-69
2023/08/25 07:56:53;;;;;;;1221.10;999.90;;;18.60;99.90;;;;;;5013555;28;20533;-69
2023/08/25 07:59:22;;;;;;;1217.87;999.90;;;18.70;99.90;;;;;;5013252;28;20810;-69
2023/08/25 08:01:50;;;;;;;1212.13;999.90;;;18.70;99.90;;;;;;5013287;28;20842;-69
2023/08/25 08:04:18;;;;;;;1201.30;999.90;;;18.70;99.90;;;;;;5013031;28;20992;-69
2023/08/25 08:06:45;;;;;;;1136.97;999.90;;;18.70;99.90;;;;;;5012852;28;20503;-66
2023/08/25 08:09:12;;;;;;;1221.27;999.90;;;18.70;99.90;;;;;;4986829;28;20451;-66
2023/08/25 08:11:39;;;;;;;1149.23;999.90;;;18.70;99.90;;;;;;4993289;28;20554;-65
2023/08/25 08:14:06;;;;;;;1191.57;999.90;;;18.60;99.90;;;;;;4992725;28;20461;-64
2023/08/25 08:16:34;;;;;;;1241.03;999.90;;;18.50;99.90;;;;;;4991543;28;20497;-65
2023/08/25 08:19:02;;;;;;;1257.73;999.90;;;18.70;99.90;;;;;;4993164;28;20460;-64
2023/08/25 08:21:29;;;;;;;1218.77;999.90;;;18.50;99.90;;;;;;4992902;28;20546;-64
2023/08/25 08:23:55;;;;;;;1243.93;999.90;;;18.60;99.90;;;;;;4993285;28;20450;-64
2023/08/25 08:26:22;;;;;;;1226.27;999.90;;;18.40;99.90;;;;;;4993550;28;20460;-64
2023/08/25 08:28:49;;;;;;;1223.40;999.90;;;18.20;99.90;;;;;;4993075;28;20485;-65
2023/08/25 08:31:18;;;;;;;1230.07;999.90;;;18.20;99.90;;;;;;4993380;28;20474;-65
2023/08/25 08:33:46;;;;;;;1105.43;997.40;;;18.10;99.90;;;;;;4993561;28;20454;-65
2023/08/25 08:36:15;;;;;;;1024.43;919.43;;;18.40;99.90;;;;;;4993405;28;20450;-65
2023/08/25 08:38:41;;;;;;;971.87;868.23;;;18.40;99.90;;;;;;4993227;28;20450;-66
2023/08/25 08:41:09;;;;;;;973.50;873.00;;;18.50;99.90;;;;;;4992929;28;20946;-66
2023/08/25 08:43:42;;;;;;;1014.70;915.10;;;18.50;99.90;;;;;;4993513;28;20456;-66
2023/08/25 08:46:11;;;;;;;1000.90;904.10;;;18.60;99.90;;;;;;4993336;28;20488;-66
2023/08/25 08:48:38;;;;;;;1034.07;937.03;;;18.70;99.90;;;;;;4993629;28;20293;-66
2023/08/25 08:51:07;;;;;;;1035.83;939.63;;;19.30;99.90;;;;;;4993103;28;20458;-67
2023/08/25 08:53:34;;;;;;;1044.23;947.83;;;19.50;99.90;;;;;;4993057;28;20463;-66
2023/08/25 08:56:03;;;;;;;1048.50;951.50;;;19.40;99.90;;;;;;4993383;28;20960;-66
2023/08/25 08:58:30;;;;;;;1037.73;941.50;;;19.30;99.90;;;;;;4993370;28;20454;-66
2023/08/25 09:00:57;;;;;;;1008.13;913.60;;;19.20;99.90;;;;;;4993519;28;20457;-67
2023/08/25 09:03:31;;;;;;;998.37;904.20;;;19.10;99.90;;;;;;4993186;28;20454;-67
2023/08/25 09:06:03;;;;;;;989.33;896.33;;;19.60;99.90;;;;;;4993702;28;20929;-67
2023/08/25 09:08:31;;;;;;;972.50;880.40;;;19.80;99.90;;;;;;4993402;28;20544;-67
2023/08/25 09:11:00;;;;;;;949.80;858.20;;;20.60;99.90;;;;;;4993203;28;20454;-67
2023/08/25 09:13:27;;;;;;;939.27;847.57;;;20.60;99.90;;;;;;4993241;28;20477;-67
2023/08/25 09:15:54;;;;;;;918.03;827.03;;;21.00;99.90;;;;;;4993153;28;21008;-68
2023/08/25 09:18:21;;;;;;;951.37;857.10;;;20.80;99.90;;;;;;4993071;28;20473;-67
2023/08/25 09:20:48;;;;;;;921.20;826.90;;;20.90;99.90;;;;;;4992942;28;20968;-67
2023/08/25 09:23:15;;;;;;;941.13;844.80;;;20.90;99.90;;;;;;4993204;28;20801;-68
2023/08/25 09:25:44;;;;;;;944.97;848.37;;;20.80;99.90;;;;;;4992953;28;20457;-67
2023/08/25 09:28:11;;;;;;;954.47;857.30;;;20.40;99.90;;;;;;4992998;28;20478;-68
2023/08/25 09:30:40;;;;;;;956.70;861.27;;;20.50;99.90;;;;;;4993005;28;20464;-68
2023/08/25 09:33:09;;;;;;;951.27;857.57;;;20.60;99.90;;;;;;4992852;28;20460;-68
2023/08/25 09:35:37;;;;;;;972.97;880.77;;;20.70;99.90;;;;;;4992668;28;20454;-68
2023/08/25 09:38:04;;;;;;;1002.83;910.13;;;20.70;99.90;;;;;;4993046;28;20461;-69
2023/08/25 09:40:31;;;;;;;1034.17;940.13;;;20.80;99.90;;;;;;4993082;28;20450;-68
2023/08/25 09:43:01;;;;;;;1034.27;940.17;;;20.60;99.90;;;;;;4992857;28;20454;-68
2023/08/25 09:45:29;;;;;;;1017.20;923.87;;;20.30;99.90;;;;;;4992784;28;20465;-69
2023/08/25 09:48:07;;;;;;;1006.50;914.10;;;20.10;99.90;;;;;;4992685;28;20985;-68
2023/08/25 09:50:38;;;;;;;1030.30;939.10;;;20.00;99.90;;;;;;4992982;28;20460;-69
2023/08/25 09:53:06;;;;;;;1004.67;916.23;;;19.80;99.90;;;;;;4992783;28;20469;-69
2023/08/25 09:55:35;;;;;;;990.60;903.70;;;19.80;99.90;;;;;;4992524;28;20457;-69
2023/08/25 09:58:05;;;;;;;995.37;908.10;;;19.70;99.90;;;;;;4992833;28;20823;-69
2023/08/25 10:00:34;;;;;;;988.77;902.37;;;19.80;99.90;;;;;;4992623;28;20458;-69
2023/08/25 10:03:02;;;;;;;982.43;896.40;;;19.70;99.90;;;;;;4995145;28;20827;-69
2023/08/25 10:05:31;;;;;;;974.23;889.33;;;19.60;99.90;;;;;;4996497;28;20457;-68
2023/08/25 10:07:59;;;;;;;982.80;898.20;;;19.60;99.90;;;;;;4996397;28;20532;-65
2023/08/25 10:10:27;;;;;;;1009.53;921.90;;;19.70;99.90;;;;;;4996530;28;20541;-64
2023/08/25 10:12:56;;;;;;;972.10;886.13;;;19.70;99.90;;;;;;4996296;28;20931;-65
2023/08/25 10:15:28;;;;;;;1032.10;946.70;;;19.50;99.90;;;;;;4996474;28;20450;-64
2023/08/25 10:17:57;;;;;;;979.00;895.53;;;19.40;99.90;;;;;;4996517;28;20457;-64
2023/08/25 10:20:25;;;;;;;932.43;852.63;;;19.30;99.90;;;;;;4996447;28;20508;-65
2023/08/25 10:22:54;;;;;;;927.90;848.60;;;19.10;99.90;;;;;;4996267;28;20540;-65
2023/08/25 10:25:22;;;;;;;1017.70;941.67;;;19.10;99.90;;;;;;4995767;28;20892;-63
2023/08/25 10:27:49;;;;;;;976.47;900.60;;;19.40;99.90;;;;;;4996302;28;20474;-62
2023/08/25 10:30:17;;;;;;;946.90;876.90;;;19.70;99.90;;;;;;4996164;28;20454;-63
2023/08/25 10:32:55;;;;;;;955.97;883.77;;;19.90;99.90;;;;;;4995921;28;20949;-64
2023/08/25 10:35:43;;;;;;;963.17;890.77;;;19.60;99.90;;;;;;4996007;28;20459;-64
2023/08/25 10:38:36;;;;;;;955.47;888.73;;;19.90;99.90;;;;;;4995869;28;20446;-64
2023/08/25 10:41:17;;;;;;;961.40;889.77;;;18.80;99.90;;;;;;4996025;28;20489;-64
2023/08/25 10:43:55;;;;;;;964.73;890.13;;;18.60;99.90;;;;;;4995740;28;20597;-65
2023/08/25 10:46:24;;;;;;;948.67;875.17;;;19.80;99.90;;;;;;4995778;28;20458;-65
2023/08/25 10:49:06;;;;;;;973.03;897.77;;;18.40;99.90;;;;;;4995748;28;20485;-65
2023/08/25 10:51:34;;;;;;;938.03;862.63;;;18.50;99.90;;;;;;4996030;28;20457;-66
2023/08/25 10:54:02;;;;;;;944.83;868.23;;;18.50;99.90;;;;;;4995465;28;20462;-66
2023/08/25 10:56:29;;;;;;;1013.87;935.77;;;19.60;99.90;;;;;;4995289;28;20553;-66
2023/08/25 10:58:58;;;;;;;1025.93;948.13;;;20.10;99.90;;;;;;4995728;28;20446;-67
2023/08/25 11:01:27;;;;;;;1042.47;963.37;;;19.10;99.90;;;;;;4995570;28;20887;-65
2023/08/25 11:04:06;;;;;;;963.97;885.97;;;20.20;99.90;;;;;;4995270;28;20543;-66
2023/08/25 11:06:42;;;;;;;960.43;881.93;;;20.60;99.90;;;;;;4995412;28;20937;-67
2023/08/25 11:09:10;;;;;;;950.20;871.90;;;20.80;99.90;;;;;;4995490;28;20849;-67
2023/08/25 11:11:38;;;;;;;980.67;898.40;;;20.60;99.90;;;;;;4995372;28;20450;-68
2023/08/25 11:14:05;;;;;;;1003.22;916.53;;;20.80;99.90;;;;;;4994031;28;20540;-68
2023/08/25 11:16:32;;;;;;;951.60;869.03;;;21.00;99.90;;;;;;4995584;28;20204;-68
2023/08/25 11:18:59;;;;;;;944.20;862.20;;;20.10;99.90;;;;;;4995449;28;20477;-68
2023/08/25 11:21:28;;;;;;;940.23;858.27;;;20.50;99.90;;;;;;4995396;28;20458;-67
2023/08/25 11:23:55;;;;;;;931.07;849.30;;;20.50;99.90;;;;;;4995492;28;20454;-69
2023/08/25 11:26:23;;;;;;;939.87;857.77;;;20.30;99.90;;;;;;4995848;28;20458;-68
2023/08/25 11:28:52;;;;;;;924.73;843.53;;;19.70;99.90;;;;;;4995578;28;20958;-68
2023/08/25 11:31:21;;;;;;;927.53;846.63;;;20.50;99.90;;;;;;4995200;28;20486;-68
2023/08/25 11:33:48;;;;;;;920.63;840.53;;;20.00;99.90;;;;;;4994557;28;20533;-68
2023/08/25 11:36:17;;;;;;;912.43;833.73;;;20.00;99.90;;;;;;4995094;28;20455;-69
2023/08/25 11:38:49;;;;;;;924.80;846.00;;;20.30;99.90;;;;;;4994853;28;20934;-68
2023/08/25 11:41:16;;;;;;;923.67;843.57;;;21.40;99.90;;;;;;4994952;28;20455;-69
2023/08/25 11:43:45;;;;;;;1026.17;946.67;;;21.60;99.90;;;;;;4994667;28;21300;-67
2023/08/25 11:46:13;;;;;;;1040.80;961.80;;;21.90;99.90;;;;;;4994986;28;20798;-67
2023/08/25 11:48:41;;;;;;;939.50;861.00;;;22.40;99.90;;;;;;4993131;28;21063;-67
2023/08/25 11:51:14;;;;;;;929.17;850.47;;;22.90;99.90;;;;;;4994516;28;20486;-67
2023/08/25 11:53:41;;;;;;;934.73;855.43;;;22.80;99.90;;;;;;4994285;28;20545;-68
2023/08/25 11:56:15;;;;;;;920.53;841.53;;;22.70;99.90;;;;;;4994217;28;20462;-68
2023/08/25 11:58:42;;;;;;;940.13;859.10;;;21.70;99.90;;;;;;4994301;28;20810;-68
2023/08/25 12:01:10;;;;;;;911.47;832.73;;;22.60;99.90;;;;;;5011508;28;20453;-69
2023/08/25 12:03:38;;;;;;;910.23;831.53;;;22.00;99.90;;;;;;5013591;28;20749;-69
2023/08/25 12:06:06;;;;;;;909.23;833.70;;;22.60;99.90;;;;;;5013504;28;20454;-68
2023/08/25 12:08:33;;;;;;;932.90;854.73;;;22.00;99.90;;;;;;5013311;28;20501;-68
2023/08/25 12:11:00;;;;;;;917.13;843.43;;;21.70;99.90;;;;;;5013684;28;20454;-69